<?xml version="1.0" encoding="UTF-8" standalone="no" ?>
<gpx xmlns="http://www.topografix.com/GPX/1/1" xmlns:xsi="http://www.w3.org/2001/XMLSchema-instance" xsi:schemaLocation="http://www.topografix.com/GPX/1/1 http://www.topografix.com/GPX/1/1/gpx.xsd" version="1.1" creator="VisuGPX - https://www.visugpx.com">
  <metadata>
    <name>randonnée raquettes à Hautacam</name>
    <desc><![CDATA[neige de printemps ]]></desc>
  </metadata>
  <trk>
    <name><![CDATA[randonnée raquettes à Hautacam_1]]></name>
    <trkseg>
      <trkpt lat="42.97188" lon="-0.0029">
        <ele>1618</ele>
        <time>2015-03-10T09:40:34Z</time>
      </trkpt>
      <trkpt lat="42.97188" lon="-0.0029">
        <ele>1618</ele>
        <time>2015-03-10T09:40:35Z</time>
      </trkpt>
      <trkpt lat="42.97188" lon="-0.00295">
        <ele>1619</ele>
        <time>2015-03-10T09:41:51Z</time>
      </trkpt>
      <trkpt lat="42.97188" lon="-0.00297">
        <ele>1619</ele>
        <time>2015-03-10T09:44:45Z</time>
      </trkpt>
      <trkpt lat="42.97189" lon="-0.00301">
        <ele>1619</ele>
        <time>2015-03-10T09:45:54Z</time>
      </trkpt>
      <trkpt lat="42.97188" lon="-0.00347">
        <ele>1619</ele>
        <time>2015-03-10T09:46:25Z</time>
      </trkpt>
      <trkpt lat="42.97203" lon="-0.00373">
        <ele>1619</ele>
        <time>2015-03-10T09:46:53Z</time>
      </trkpt>
      <trkpt lat="42.97231" lon="-0.00397">
        <ele>1620</ele>
        <time>2015-03-10T09:47:23Z</time>
      </trkpt>
      <trkpt lat="42.9726" lon="-0.00413">
        <ele>1625</ele>
        <time>2015-03-10T09:47:53Z</time>
      </trkpt>
      <trkpt lat="42.9727" lon="-0.00418">
        <ele>1620</ele>
        <time>2015-03-10T09:48:24Z</time>
      </trkpt>
      <trkpt lat="42.97278" lon="-0.0042">
        <ele>1620</ele>
        <time>2015-03-10T09:48:31Z</time>
      </trkpt>
      <trkpt lat="42.9729" lon="-0.00418">
        <ele>1621</ele>
        <time>2015-03-10T09:48:43Z</time>
      </trkpt>
      <trkpt lat="42.97291" lon="-0.00415">
        <ele>1628</ele>
        <time>2015-03-10T09:48:45Z</time>
      </trkpt>
      <trkpt lat="42.97289" lon="-0.00409">
        <ele>1628</ele>
        <time>2015-03-10T09:48:49Z</time>
      </trkpt>
      <trkpt lat="42.97262" lon="-0.00379">
        <ele>1627</ele>
        <time>2015-03-10T09:49:19Z</time>
      </trkpt>
      <trkpt lat="42.9726" lon="-0.00377">
        <ele>1627</ele>
        <time>2015-03-10T09:49:21Z</time>
      </trkpt>
      <trkpt lat="42.97252" lon="-0.00354">
        <ele>1628</ele>
        <time>2015-03-10T09:49:37Z</time>
      </trkpt>
      <trkpt lat="42.97252" lon="-0.00341">
        <ele>1627</ele>
        <time>2015-03-10T09:49:46Z</time>
      </trkpt>
      <trkpt lat="42.97256" lon="-0.00336">
        <ele>1627</ele>
        <time>2015-03-10T09:49:51Z</time>
      </trkpt>
      <trkpt lat="42.97265" lon="-0.00336">
        <ele>1628</ele>
        <time>2015-03-10T09:49:59Z</time>
      </trkpt>
      <trkpt lat="42.97268" lon="-0.00334">
        <ele>1628</ele>
        <time>2015-03-10T09:52:49Z</time>
      </trkpt>
      <trkpt lat="42.97294" lon="-0.00338">
        <ele>1629</ele>
        <time>2015-03-10T09:53:19Z</time>
      </trkpt>
      <trkpt lat="42.97318" lon="-0.00334">
        <ele>1631</ele>
        <time>2015-03-10T09:53:50Z</time>
      </trkpt>
      <trkpt lat="42.97345" lon="-0.00331">
        <ele>1629</ele>
        <time>2015-03-10T09:54:21Z</time>
      </trkpt>
      <trkpt lat="42.97374" lon="-0.00332">
        <ele>1628</ele>
        <time>2015-03-10T09:54:52Z</time>
      </trkpt>
      <trkpt lat="42.97402" lon="-0.00333">
        <ele>1632</ele>
        <time>2015-03-10T09:55:23Z</time>
      </trkpt>
      <trkpt lat="42.97429" lon="-0.00321">
        <ele>1635</ele>
        <time>2015-03-10T09:55:53Z</time>
      </trkpt>
      <trkpt lat="42.97451" lon="-0.00299">
        <ele>1635</ele>
        <time>2015-03-10T09:56:23Z</time>
      </trkpt>
      <trkpt lat="42.9747" lon="-0.00278">
        <ele>1637</ele>
        <time>2015-03-10T09:56:59Z</time>
      </trkpt>
      <trkpt lat="42.97491" lon="-0.0027">
        <ele>1640</ele>
        <time>2015-03-10T09:57:29Z</time>
      </trkpt>
      <trkpt lat="42.97524" lon="-0.00269">
        <ele>1643</ele>
        <time>2015-03-10T09:57:59Z</time>
      </trkpt>
      <trkpt lat="42.97556" lon="-0.00267">
        <ele>1643</ele>
        <time>2015-03-10T09:58:29Z</time>
      </trkpt>
      <trkpt lat="42.97586" lon="-0.00263">
        <ele>1643</ele>
        <time>2015-03-10T09:58:59Z</time>
      </trkpt>
      <trkpt lat="42.97616" lon="-0.00254">
        <ele>1640</ele>
        <time>2015-03-10T09:59:29Z</time>
      </trkpt>
      <trkpt lat="42.9763" lon="-0.00246">
        <ele>1646</ele>
        <time>2015-03-10T09:59:45Z</time>
      </trkpt>
      <trkpt lat="42.9763" lon="-0.0025">
        <ele>1646</ele>
        <time>2015-03-10T10:00:58Z</time>
      </trkpt>
      <trkpt lat="42.9763" lon="-0.0025">
        <ele>1646</ele>
        <time>2015-03-10T10:03:46Z</time>
      </trkpt>
      <trkpt lat="42.97661" lon="-0.0023">
        <ele>1644</ele>
        <time>2015-03-10T10:04:17Z</time>
      </trkpt>
      <trkpt lat="42.97689" lon="-0.00204">
        <ele>1639</ele>
        <time>2015-03-10T10:04:47Z</time>
      </trkpt>
      <trkpt lat="42.97716" lon="-0.00177">
        <ele>1638</ele>
        <time>2015-03-10T10:05:17Z</time>
      </trkpt>
      <trkpt lat="42.97743" lon="-0.00152">
        <ele>1639</ele>
        <time>2015-03-10T10:05:47Z</time>
      </trkpt>
      <trkpt lat="42.97769" lon="-0.00124">
        <ele>1632</ele>
        <time>2015-03-10T10:06:17Z</time>
      </trkpt>
      <trkpt lat="42.97794" lon="-0.00094">
        <ele>1630</ele>
        <time>2015-03-10T10:06:47Z</time>
      </trkpt>
      <trkpt lat="42.97819" lon="-0.00062">
        <ele>1630</ele>
        <time>2015-03-10T10:07:18Z</time>
      </trkpt>
      <trkpt lat="42.97845" lon="-0.00034">
        <ele>1627</ele>
        <time>2015-03-10T10:07:48Z</time>
      </trkpt>
      <trkpt lat="42.97876" lon="-0.00021">
        <ele>1627</ele>
        <time>2015-03-10T10:08:18Z</time>
      </trkpt>
      <trkpt lat="42.97909" lon="-0.00017">
        <ele>1627</ele>
        <time>2015-03-10T10:08:48Z</time>
      </trkpt>
      <trkpt lat="42.97941" lon="-0.00011">
        <ele>1624</ele>
        <time>2015-03-10T10:09:18Z</time>
      </trkpt>
      <trkpt lat="42.97975" lon="-0.00011">
        <ele>1623</ele>
        <time>2015-03-10T10:09:49Z</time>
      </trkpt>
      <trkpt lat="42.9801" lon="-0.00014">
        <ele>1624</ele>
        <time>2015-03-10T10:10:20Z</time>
      </trkpt>
      <trkpt lat="42.98044" lon="-0.00025">
        <ele>1622</ele>
        <time>2015-03-10T10:10:51Z</time>
      </trkpt>
      <trkpt lat="42.9807" lon="-0.0005">
        <ele>1620</ele>
        <time>2015-03-10T10:11:21Z</time>
      </trkpt>
      <trkpt lat="42.98096" lon="-0.00077">
        <ele>1621</ele>
        <time>2015-03-10T10:11:51Z</time>
      </trkpt>
      <trkpt lat="42.98121" lon="-0.00106">
        <ele>1616</ele>
        <time>2015-03-10T10:12:21Z</time>
      </trkpt>
      <trkpt lat="42.98146" lon="-0.00134">
        <ele>1615</ele>
        <time>2015-03-10T10:12:51Z</time>
      </trkpt>
      <trkpt lat="42.98173" lon="-0.00161">
        <ele>1615</ele>
        <time>2015-03-10T10:13:21Z</time>
      </trkpt>
      <trkpt lat="42.98199" lon="-0.00188">
        <ele>1611</ele>
        <time>2015-03-10T10:13:51Z</time>
      </trkpt>
      <trkpt lat="42.9822" lon="-0.00219">
        <ele>1610</ele>
        <time>2015-03-10T10:14:21Z</time>
      </trkpt>
      <trkpt lat="42.98245" lon="-0.00248">
        <ele>1610</ele>
        <time>2015-03-10T10:14:51Z</time>
      </trkpt>
      <trkpt lat="42.98273" lon="-0.00275">
        <ele>1607</ele>
        <time>2015-03-10T10:15:21Z</time>
      </trkpt>
      <trkpt lat="42.98297" lon="-0.00307">
        <ele>1605</ele>
        <time>2015-03-10T10:15:51Z</time>
      </trkpt>
      <trkpt lat="42.98322" lon="-0.00342">
        <ele>1602</ele>
        <time>2015-03-10T10:16:21Z</time>
      </trkpt>
      <trkpt lat="42.98345" lon="-0.00378">
        <ele>1602</ele>
        <time>2015-03-10T10:16:51Z</time>
      </trkpt>
      <trkpt lat="42.98365" lon="-0.00416">
        <ele>1601</ele>
        <time>2015-03-10T10:17:21Z</time>
      </trkpt>
      <trkpt lat="42.98388" lon="-0.00453">
        <ele>1595</ele>
        <time>2015-03-10T10:17:51Z</time>
      </trkpt>
      <trkpt lat="42.98411" lon="-0.00486">
        <ele>1594</ele>
        <time>2015-03-10T10:18:21Z</time>
      </trkpt>
      <trkpt lat="42.9843" lon="-0.00523">
        <ele>1595</ele>
        <time>2015-03-10T10:18:51Z</time>
      </trkpt>
      <trkpt lat="42.98446" lon="-0.00555">
        <ele>1596</ele>
        <time>2015-03-10T10:19:21Z</time>
      </trkpt>
      <trkpt lat="42.98458" lon="-0.00585">
        <ele>1597</ele>
        <time>2015-03-10T10:19:51Z</time>
      </trkpt>
      <trkpt lat="42.98473" lon="-0.00615">
        <ele>1598</ele>
        <time>2015-03-10T10:20:21Z</time>
      </trkpt>
      <trkpt lat="42.98497" lon="-0.00632">
        <ele>1599</ele>
        <time>2015-03-10T10:20:53Z</time>
      </trkpt>
      <trkpt lat="42.98516" lon="-0.00649">
        <ele>1606</ele>
        <time>2015-03-10T10:21:23Z</time>
      </trkpt>
      <trkpt lat="42.98536" lon="-0.00665">
        <ele>1607</ele>
        <time>2015-03-10T10:21:54Z</time>
      </trkpt>
      <trkpt lat="42.98563" lon="-0.00673">
        <ele>1608</ele>
        <time>2015-03-10T10:22:24Z</time>
      </trkpt>
      <trkpt lat="42.98597" lon="-0.00683">
        <ele>1609</ele>
        <time>2015-03-10T10:22:55Z</time>
      </trkpt>
      <trkpt lat="42.98632" lon="-0.00688">
        <ele>1606</ele>
        <time>2015-03-10T10:23:26Z</time>
      </trkpt>
      <trkpt lat="42.98666" lon="-0.00694">
        <ele>1605</ele>
        <time>2015-03-10T10:23:56Z</time>
      </trkpt>
      <trkpt lat="42.98699" lon="-0.00696">
        <ele>1601</ele>
        <time>2015-03-10T10:24:27Z</time>
      </trkpt>
      <trkpt lat="42.98733" lon="-0.00698">
        <ele>1600</ele>
        <time>2015-03-10T10:24:58Z</time>
      </trkpt>
      <trkpt lat="42.98765" lon="-0.00709">
        <ele>1597</ele>
        <time>2015-03-10T10:25:28Z</time>
      </trkpt>
      <trkpt lat="42.98775" lon="-0.00723">
        <ele>1597</ele>
        <time>2015-03-10T10:25:42Z</time>
      </trkpt>
      <trkpt lat="42.98777" lon="-0.00759">
        <ele>1597</ele>
        <time>2015-03-10T10:26:13Z</time>
      </trkpt>
      <trkpt lat="42.98781" lon="-0.00781">
        <ele>1597</ele>
        <time>2015-03-10T10:26:35Z</time>
      </trkpt>
      <trkpt lat="42.98802" lon="-0.0079">
        <ele>1597</ele>
        <time>2015-03-10T10:27:05Z</time>
      </trkpt>
      <trkpt lat="42.98827" lon="-0.00786">
        <ele>1598</ele>
        <time>2015-03-10T10:27:35Z</time>
      </trkpt>
      <trkpt lat="42.98855" lon="-0.00791">
        <ele>1601</ele>
        <time>2015-03-10T10:28:05Z</time>
      </trkpt>
      <trkpt lat="42.9888" lon="-0.0081">
        <ele>1602</ele>
        <time>2015-03-10T10:28:35Z</time>
      </trkpt>
      <trkpt lat="42.98904" lon="-0.00823">
        <ele>1605</ele>
        <time>2015-03-10T10:29:06Z</time>
      </trkpt>
      <trkpt lat="42.98929" lon="-0.00836">
        <ele>1613</ele>
        <time>2015-03-10T10:29:37Z</time>
      </trkpt>
      <trkpt lat="42.98952" lon="-0.00842">
        <ele>1616</ele>
        <time>2015-03-10T10:30:07Z</time>
      </trkpt>
      <trkpt lat="42.98977" lon="-0.0085">
        <ele>1618</ele>
        <time>2015-03-10T10:30:37Z</time>
      </trkpt>
      <trkpt lat="42.98995" lon="-0.00853">
        <ele>1619</ele>
        <time>2015-03-10T10:31:09Z</time>
      </trkpt>
      <trkpt lat="42.9902" lon="-0.00849">
        <ele>1625</ele>
        <time>2015-03-10T10:31:39Z</time>
      </trkpt>
      <trkpt lat="42.99045" lon="-0.00841">
        <ele>1627</ele>
        <time>2015-03-10T10:32:09Z</time>
      </trkpt>
      <trkpt lat="42.99066" lon="-0.00832">
        <ele>1623</ele>
        <time>2015-03-10T10:32:49Z</time>
      </trkpt>
      <trkpt lat="42.99095" lon="-0.00831">
        <ele>1629</ele>
        <time>2015-03-10T10:33:19Z</time>
      </trkpt>
      <trkpt lat="42.99117" lon="-0.00844">
        <ele>1636</ele>
        <time>2015-03-10T10:33:50Z</time>
      </trkpt>
      <trkpt lat="42.99141" lon="-0.00856">
        <ele>1639</ele>
        <time>2015-03-10T10:34:21Z</time>
      </trkpt>
      <trkpt lat="42.99166" lon="-0.00864">
        <ele>1640</ele>
        <time>2015-03-10T10:34:51Z</time>
      </trkpt>
      <trkpt lat="42.99191" lon="-0.00872">
        <ele>1647</ele>
        <time>2015-03-10T10:35:21Z</time>
      </trkpt>
      <trkpt lat="42.99217" lon="-0.00885">
        <ele>1649</ele>
        <time>2015-03-10T10:35:51Z</time>
      </trkpt>
      <trkpt lat="42.99241" lon="-0.00896">
        <ele>1651</ele>
        <time>2015-03-10T10:36:21Z</time>
      </trkpt>
      <trkpt lat="42.99265" lon="-0.00913">
        <ele>1657</ele>
        <time>2015-03-10T10:36:51Z</time>
      </trkpt>
      <trkpt lat="42.99286" lon="-0.00929">
        <ele>1661</ele>
        <time>2015-03-10T10:37:21Z</time>
      </trkpt>
      <trkpt lat="42.99288" lon="-0.00931">
        <ele>1661</ele>
        <time>2015-03-10T10:37:24Z</time>
      </trkpt>
      <trkpt lat="42.99317" lon="-0.00928">
        <ele>1663</ele>
        <time>2015-03-10T10:37:55Z</time>
      </trkpt>
      <trkpt lat="42.99344" lon="-0.00932">
        <ele>1664</ele>
        <time>2015-03-10T10:38:25Z</time>
      </trkpt>
      <trkpt lat="42.99366" lon="-0.00946">
        <ele>1665</ele>
        <time>2015-03-10T10:38:55Z</time>
      </trkpt>
      <trkpt lat="42.99387" lon="-0.00967">
        <ele>1665</ele>
        <time>2015-03-10T10:39:26Z</time>
      </trkpt>
      <trkpt lat="42.99393" lon="-0.00985">
        <ele>1666</ele>
        <time>2015-03-10T10:39:45Z</time>
      </trkpt>
      <trkpt lat="42.99392" lon="-0.00997">
        <ele>1667</ele>
        <time>2015-03-10T10:39:58Z</time>
      </trkpt>
      <trkpt lat="42.99394" lon="-0.00997">
        <ele>1667</ele>
        <time>2015-03-10T10:40:43Z</time>
      </trkpt>
      <trkpt lat="42.99411" lon="-0.01025">
        <ele>1672</ele>
        <time>2015-03-10T10:41:14Z</time>
      </trkpt>
      <trkpt lat="42.99424" lon="-0.01042">
        <ele>1664</ele>
        <time>2015-03-10T10:42:02Z</time>
      </trkpt>
      <trkpt lat="42.99445" lon="-0.01075">
        <ele>1664</ele>
        <time>2015-03-10T10:42:32Z</time>
      </trkpt>
      <trkpt lat="42.99457" lon="-0.01102">
        <ele>1669</ele>
        <time>2015-03-10T10:42:55Z</time>
      </trkpt>
      <trkpt lat="42.99457" lon="-0.01099">
        <ele>1669</ele>
        <time>2015-03-10T10:44:34Z</time>
      </trkpt>
      <trkpt lat="42.99451" lon="-0.01082">
        <ele>1663</ele>
        <time>2015-03-10T10:44:49Z</time>
      </trkpt>
      <trkpt lat="42.99451" lon="-0.0108">
        <ele>1663</ele>
        <time>2015-03-10T10:44:54Z</time>
      </trkpt>
      <trkpt lat="42.99453" lon="-0.01077">
        <ele>1663</ele>
        <time>2015-03-10T10:44:57Z</time>
      </trkpt>
      <trkpt lat="42.99473" lon="-0.01045">
        <ele>1657</ele>
        <time>2015-03-10T10:45:28Z</time>
      </trkpt>
      <trkpt lat="42.99483" lon="-0.01028">
        <ele>1653</ele>
        <time>2015-03-10T10:45:46Z</time>
      </trkpt>
      <trkpt lat="42.99482" lon="-0.01026">
        <ele>1652</ele>
        <time>2015-03-10T10:47:03Z</time>
      </trkpt>
      <trkpt lat="42.99481" lon="-0.01025">
        <ele>1652</ele>
        <time>2015-03-10T10:47:48Z</time>
      </trkpt>
      <trkpt lat="42.99479" lon="-0.01025">
        <ele>1653</ele>
        <time>2015-03-10T10:47:50Z</time>
      </trkpt>
      <trkpt lat="42.99451" lon="-0.01011">
        <ele>1658</ele>
        <time>2015-03-10T10:48:21Z</time>
      </trkpt>
      <trkpt lat="42.9945" lon="-0.0101">
        <ele>1659</ele>
        <time>2015-03-10T10:48:23Z</time>
      </trkpt>
      <trkpt lat="42.99441" lon="-0.01004">
        <ele>1661</ele>
        <time>2015-03-10T10:48:37Z</time>
      </trkpt>
      <trkpt lat="42.99439" lon="-0.01007">
        <ele>1661</ele>
        <time>2015-03-10T10:52:25Z</time>
      </trkpt>
      <trkpt lat="42.99437" lon="-0.01008">
        <ele>1662</ele>
        <time>2015-03-10T10:52:29Z</time>
      </trkpt>
      <trkpt lat="42.99434" lon="-0.01011">
        <ele>1662</ele>
        <time>2015-03-10T10:52:36Z</time>
      </trkpt>
      <trkpt lat="42.99436" lon="-0.01013">
        <ele>1662</ele>
        <time>2015-03-10T10:53:51Z</time>
      </trkpt>
      <trkpt lat="42.99442" lon="-0.01019">
        <ele>1660</ele>
        <time>2015-03-10T10:54:23Z</time>
      </trkpt>
      <trkpt lat="42.99453" lon="-0.01036">
        <ele>1659</ele>
        <time>2015-03-10T10:54:53Z</time>
      </trkpt>
      <trkpt lat="42.99468" lon="-0.01071">
        <ele>1659</ele>
        <time>2015-03-10T10:55:23Z</time>
      </trkpt>
      <trkpt lat="42.99481" lon="-0.01113">
        <ele>1666</ele>
        <time>2015-03-10T10:55:55Z</time>
      </trkpt>
      <trkpt lat="42.99491" lon="-0.0116">
        <ele>1669</ele>
        <time>2015-03-10T10:56:27Z</time>
      </trkpt>
      <trkpt lat="42.99517" lon="-0.01185">
        <ele>1668</ele>
        <time>2015-03-10T10:56:57Z</time>
      </trkpt>
      <trkpt lat="42.99519" lon="-0.01186">
        <ele>1667</ele>
        <time>2015-03-10T10:57:29Z</time>
      </trkpt>
      <trkpt lat="42.99543" lon="-0.01216">
        <ele>1668</ele>
        <time>2015-03-10T10:57:59Z</time>
      </trkpt>
      <trkpt lat="42.99556" lon="-0.01245">
        <ele>1670</ele>
        <time>2015-03-10T10:58:29Z</time>
      </trkpt>
      <trkpt lat="42.99565" lon="-0.01269">
        <ele>1674</ele>
        <time>2015-03-10T10:59:01Z</time>
      </trkpt>
      <trkpt lat="42.99576" lon="-0.01292">
        <ele>1673</ele>
        <time>2015-03-10T10:59:31Z</time>
      </trkpt>
      <trkpt lat="42.99589" lon="-0.01308">
        <ele>1679</ele>
        <time>2015-03-10T10:59:58Z</time>
      </trkpt>
      <trkpt lat="42.99602" lon="-0.01283">
        <ele>1679</ele>
        <time>2015-03-10T11:00:31Z</time>
      </trkpt>
      <trkpt lat="42.99612" lon="-0.01268">
        <ele>1679</ele>
        <time>2015-03-10T11:00:55Z</time>
      </trkpt>
      <trkpt lat="42.99632" lon="-0.01278">
        <ele>1679</ele>
        <time>2015-03-10T11:01:25Z</time>
      </trkpt>
      <trkpt lat="42.99653" lon="-0.0129">
        <ele>1680</ele>
        <time>2015-03-10T11:01:55Z</time>
      </trkpt>
      <trkpt lat="42.99677" lon="-0.01308">
        <ele>1682</ele>
        <time>2015-03-10T11:02:25Z</time>
      </trkpt>
      <trkpt lat="42.99705" lon="-0.01321">
        <ele>1681</ele>
        <time>2015-03-10T11:02:55Z</time>
      </trkpt>
      <trkpt lat="42.99735" lon="-0.01332">
        <ele>1682</ele>
        <time>2015-03-10T11:03:25Z</time>
      </trkpt>
      <trkpt lat="42.99763" lon="-0.01343">
        <ele>1681</ele>
        <time>2015-03-10T11:03:55Z</time>
      </trkpt>
      <trkpt lat="42.99784" lon="-0.01352">
        <ele>1678</ele>
        <time>2015-03-10T11:05:36Z</time>
      </trkpt>
      <trkpt lat="42.99817" lon="-0.01366">
        <ele>1676</ele>
        <time>2015-03-10T11:06:07Z</time>
      </trkpt>
      <trkpt lat="42.99822" lon="-0.0137">
        <ele>1676</ele>
        <time>2015-03-10T11:06:13Z</time>
      </trkpt>
      <trkpt lat="42.99848" lon="-0.01367">
        <ele>1677</ele>
        <time>2015-03-10T11:07:37Z</time>
      </trkpt>
      <trkpt lat="42.99867" lon="-0.01366">
        <ele>1678</ele>
        <time>2015-03-10T11:08:08Z</time>
      </trkpt>
      <trkpt lat="42.99892" lon="-0.0137">
        <ele>1680</ele>
        <time>2015-03-10T11:08:38Z</time>
      </trkpt>
      <trkpt lat="42.99909" lon="-0.01371">
        <ele>1680</ele>
        <time>2015-03-10T11:09:09Z</time>
      </trkpt>
      <trkpt lat="42.99911" lon="-0.01371">
        <ele>1680</ele>
        <time>2015-03-10T11:09:46Z</time>
      </trkpt>
      <trkpt lat="42.99924" lon="-0.01375">
        <ele>1689</ele>
        <time>2015-03-10T11:10:16Z</time>
      </trkpt>
      <trkpt lat="42.99951" lon="-0.01382">
        <ele>1692</ele>
        <time>2015-03-10T11:10:47Z</time>
      </trkpt>
      <trkpt lat="42.99972" lon="-0.01388">
        <ele>1693</ele>
        <time>2015-03-10T11:11:17Z</time>
      </trkpt>
      <trkpt lat="42.99993" lon="-0.01388">
        <ele>1695</ele>
        <time>2015-03-10T11:11:50Z</time>
      </trkpt>
      <trkpt lat="43.00017" lon="-0.01386">
        <ele>1701</ele>
        <time>2015-03-10T11:12:20Z</time>
      </trkpt>
      <trkpt lat="43.00046" lon="-0.01386">
        <ele>1702</ele>
        <time>2015-03-10T11:12:50Z</time>
      </trkpt>
      <trkpt lat="43.00076" lon="-0.01394">
        <ele>1704</ele>
        <time>2015-03-10T11:13:20Z</time>
      </trkpt>
      <trkpt lat="43.00099" lon="-0.0141">
        <ele>1707</ele>
        <time>2015-03-10T11:13:51Z</time>
      </trkpt>
      <trkpt lat="43.00123" lon="-0.01415">
        <ele>1708</ele>
        <time>2015-03-10T11:14:21Z</time>
      </trkpt>
      <trkpt lat="43.00154" lon="-0.01424">
        <ele>1710</ele>
        <time>2015-03-10T11:14:52Z</time>
      </trkpt>
      <trkpt lat="43.00175" lon="-0.01438">
        <ele>1717</ele>
        <time>2015-03-10T11:15:23Z</time>
      </trkpt>
      <trkpt lat="43.00195" lon="-0.01445">
        <ele>1718</ele>
        <time>2015-03-10T11:15:54Z</time>
      </trkpt>
      <trkpt lat="43.00201" lon="-0.01442">
        <ele>1718</ele>
        <time>2015-03-10T11:16:06Z</time>
      </trkpt>
      <trkpt lat="43.00212" lon="-0.01425">
        <ele>1720</ele>
        <time>2015-03-10T11:16:37Z</time>
      </trkpt>
      <trkpt lat="43.0022" lon="-0.01414">
        <ele>1716</ele>
        <time>2015-03-10T11:16:56Z</time>
      </trkpt>
      <trkpt lat="43.00236" lon="-0.01423">
        <ele>1723</ele>
        <time>2015-03-10T11:17:24Z</time>
      </trkpt>
      <trkpt lat="43.00237" lon="-0.0143">
        <ele>1722</ele>
        <time>2015-03-10T11:17:38Z</time>
      </trkpt>
      <trkpt lat="43.00238" lon="-0.01432">
        <ele>1722</ele>
        <time>2015-03-10T11:17:40Z</time>
      </trkpt>
      <trkpt lat="43.00252" lon="-0.01459">
        <ele>1713</ele>
        <time>2015-03-10T11:18:10Z</time>
      </trkpt>
      <trkpt lat="43.00255" lon="-0.01463">
        <ele>1713</ele>
        <time>2015-03-10T11:18:16Z</time>
      </trkpt>
      <trkpt lat="43.00255" lon="-0.01461">
        <ele>1713</ele>
        <time>2015-03-10T11:18:58Z</time>
      </trkpt>
      <trkpt lat="43.00254" lon="-0.0146">
        <ele>1713</ele>
        <time>2015-03-10T11:23:44Z</time>
      </trkpt>
      <trkpt lat="43.00235" lon="-0.01428">
        <ele>1722</ele>
        <time>2015-03-10T11:24:14Z</time>
      </trkpt>
      <trkpt lat="43.0022" lon="-0.01413">
        <ele>1716</ele>
        <time>2015-03-10T11:24:34Z</time>
      </trkpt>
      <trkpt lat="43.00209" lon="-0.01411">
        <ele>1715</ele>
        <time>2015-03-10T11:24:49Z</time>
      </trkpt>
      <trkpt lat="43.00207" lon="-0.0141">
        <ele>1715</ele>
        <time>2015-03-10T11:58:05Z</time>
      </trkpt>
      <trkpt lat="43.00206" lon="-0.0141">
        <ele>1715</ele>
        <time>2015-03-10T11:58:22Z</time>
      </trkpt>
      <trkpt lat="43.00201" lon="-0.0141">
        <ele>1714</ele>
        <time>2015-03-10T11:58:38Z</time>
      </trkpt>
      <trkpt lat="43.0018" lon="-0.01418">
        <ele>1717</ele>
        <time>2015-03-10T11:59:10Z</time>
      </trkpt>
      <trkpt lat="43.00178" lon="-0.01417">
        <ele>1717</ele>
        <time>2015-03-10T11:59:14Z</time>
      </trkpt>
      <trkpt lat="43.00156" lon="-0.01417">
        <ele>1713</ele>
        <time>2015-03-10T11:59:45Z</time>
      </trkpt>
      <trkpt lat="43.00154" lon="-0.01416">
        <ele>1712</ele>
        <time>2015-03-10T11:59:47Z</time>
      </trkpt>
      <trkpt lat="43.00135" lon="-0.01412">
        <ele>1709</ele>
        <time>2015-03-10T12:00:07Z</time>
      </trkpt>
      <trkpt lat="43.00131" lon="-0.01413">
        <ele>1709</ele>
        <time>2015-03-10T12:01:43Z</time>
      </trkpt>
      <trkpt lat="43.00101" lon="-0.01412">
        <ele>1707</ele>
        <time>2015-03-10T12:02:13Z</time>
      </trkpt>
      <trkpt lat="43.00071" lon="-0.01391">
        <ele>1704</ele>
        <time>2015-03-10T12:02:44Z</time>
      </trkpt>
      <trkpt lat="43.00053" lon="-0.01386">
        <ele>1703</ele>
        <time>2015-03-10T12:03:04Z</time>
      </trkpt>
      <trkpt lat="43.00051" lon="-0.01386">
        <ele>1703</ele>
        <time>2015-03-10T12:03:07Z</time>
      </trkpt>
      <trkpt lat="43.0005" lon="-0.01385">
        <ele>1703</ele>
        <time>2015-03-10T12:03:10Z</time>
      </trkpt>
      <trkpt lat="43.00048" lon="-0.01385">
        <ele>1702</ele>
        <time>2015-03-10T12:03:12Z</time>
      </trkpt>
      <trkpt lat="43.00044" lon="-0.01385">
        <ele>1702</ele>
        <time>2015-03-10T12:03:16Z</time>
      </trkpt>
      <trkpt lat="43.00042" lon="-0.01385">
        <ele>1702</ele>
        <time>2015-03-10T12:03:18Z</time>
      </trkpt>
      <trkpt lat="43.00041" lon="-0.01385">
        <ele>1702</ele>
        <time>2015-03-10T12:03:20Z</time>
      </trkpt>
      <trkpt lat="43.00007" lon="-0.01387">
        <ele>1701</ele>
        <time>2015-03-10T12:03:51Z</time>
      </trkpt>
      <trkpt lat="42.99978" lon="-0.01385">
        <ele>1694</ele>
        <time>2015-03-10T12:04:21Z</time>
      </trkpt>
      <trkpt lat="42.99976" lon="-0.01385">
        <ele>1694</ele>
        <time>2015-03-10T12:04:23Z</time>
      </trkpt>
      <trkpt lat="42.99974" lon="-0.01385">
        <ele>1694</ele>
        <time>2015-03-10T12:04:25Z</time>
      </trkpt>
      <trkpt lat="42.9995" lon="-0.0138">
        <ele>1691</ele>
        <time>2015-03-10T12:04:56Z</time>
      </trkpt>
      <trkpt lat="42.9992" lon="-0.01377">
        <ele>1689</ele>
        <time>2015-03-10T12:05:27Z</time>
      </trkpt>
      <trkpt lat="42.99891" lon="-0.01382">
        <ele>1680</ele>
        <time>2015-03-10T12:05:57Z</time>
      </trkpt>
      <trkpt lat="42.9986" lon="-0.01384">
        <ele>1678</ele>
        <time>2015-03-10T12:06:28Z</time>
      </trkpt>
      <trkpt lat="42.99829" lon="-0.0138">
        <ele>1676</ele>
        <time>2015-03-10T12:06:59Z</time>
      </trkpt>
      <trkpt lat="42.99803" lon="-0.01385">
        <ele>1676</ele>
        <time>2015-03-10T12:07:29Z</time>
      </trkpt>
      <trkpt lat="42.9977" lon="-0.01396">
        <ele>1677</ele>
        <time>2015-03-10T12:08:00Z</time>
      </trkpt>
      <trkpt lat="42.99739" lon="-0.01407">
        <ele>1678</ele>
        <time>2015-03-10T12:08:30Z</time>
      </trkpt>
      <trkpt lat="42.99716" lon="-0.01418">
        <ele>1668</ele>
        <time>2015-03-10T12:09:00Z</time>
      </trkpt>
      <trkpt lat="42.99714" lon="-0.01418">
        <ele>1668</ele>
        <time>2015-03-10T12:09:02Z</time>
      </trkpt>
      <trkpt lat="42.99682" lon="-0.01433">
        <ele>1669</ele>
        <time>2015-03-10T12:09:33Z</time>
      </trkpt>
      <trkpt lat="42.99651" lon="-0.01444">
        <ele>1664</ele>
        <time>2015-03-10T12:10:04Z</time>
      </trkpt>
      <trkpt lat="42.9962" lon="-0.0145">
        <ele>1661</ele>
        <time>2015-03-10T12:10:34Z</time>
      </trkpt>
      <trkpt lat="42.99588" lon="-0.0145">
        <ele>1660</ele>
        <time>2015-03-10T12:11:04Z</time>
      </trkpt>
      <trkpt lat="42.99586" lon="-0.0145">
        <ele>1660</ele>
        <time>2015-03-10T12:11:06Z</time>
      </trkpt>
      <trkpt lat="42.99584" lon="-0.01449">
        <ele>1660</ele>
        <time>2015-03-10T12:11:08Z</time>
      </trkpt>
      <trkpt lat="42.99583" lon="-0.01448">
        <ele>1655</ele>
        <time>2015-03-10T12:11:10Z</time>
      </trkpt>
      <trkpt lat="42.99582" lon="-0.01445">
        <ele>1656</ele>
        <time>2015-03-10T12:11:12Z</time>
      </trkpt>
      <trkpt lat="42.99568" lon="-0.01417">
        <ele>1659</ele>
        <time>2015-03-10T12:11:42Z</time>
      </trkpt>
      <trkpt lat="42.99567" lon="-0.01415">
        <ele>1665</ele>
        <time>2015-03-10T12:11:44Z</time>
      </trkpt>
      <trkpt lat="42.9956" lon="-0.01383">
        <ele>1666</ele>
        <time>2015-03-10T12:12:14Z</time>
      </trkpt>
      <trkpt lat="42.99553" lon="-0.01353">
        <ele>1668</ele>
        <time>2015-03-10T12:12:44Z</time>
      </trkpt>
      <trkpt lat="42.99538" lon="-0.01322">
        <ele>1671</ele>
        <time>2015-03-10T12:13:14Z</time>
      </trkpt>
      <trkpt lat="42.99518" lon="-0.01293">
        <ele>1670</ele>
        <time>2015-03-10T12:13:44Z</time>
      </trkpt>
      <trkpt lat="42.99495" lon="-0.01272">
        <ele>1668</ele>
        <time>2015-03-10T12:14:14Z</time>
      </trkpt>
      <trkpt lat="42.99494" lon="-0.0127">
        <ele>1668</ele>
        <time>2015-03-10T12:14:16Z</time>
      </trkpt>
      <trkpt lat="42.99492" lon="-0.01269">
        <ele>1668</ele>
        <time>2015-03-10T12:14:18Z</time>
      </trkpt>
      <trkpt lat="42.99469" lon="-0.01251">
        <ele>1668</ele>
        <time>2015-03-10T12:14:48Z</time>
      </trkpt>
      <trkpt lat="42.99449" lon="-0.01233">
        <ele>1671</ele>
        <time>2015-03-10T12:15:18Z</time>
      </trkpt>
      <trkpt lat="42.99448" lon="-0.01232">
        <ele>1671</ele>
        <time>2015-03-10T12:15:20Z</time>
      </trkpt>
      <trkpt lat="42.99447" lon="-0.0123">
        <ele>1671</ele>
        <time>2015-03-10T12:15:22Z</time>
      </trkpt>
      <trkpt lat="42.99437" lon="-0.01224">
        <ele>1671</ele>
        <time>2015-03-10T12:15:36Z</time>
      </trkpt>
      <trkpt lat="42.99414" lon="-0.01219">
        <ele>1677</ele>
        <time>2015-03-10T12:16:06Z</time>
      </trkpt>
      <trkpt lat="42.99391" lon="-0.01214">
        <ele>1678</ele>
        <time>2015-03-10T12:16:37Z</time>
      </trkpt>
      <trkpt lat="42.9937" lon="-0.01207">
        <ele>1680</ele>
        <time>2015-03-10T12:17:08Z</time>
      </trkpt>
      <trkpt lat="42.99346" lon="-0.01204">
        <ele>1682</ele>
        <time>2015-03-10T12:17:40Z</time>
      </trkpt>
      <trkpt lat="42.99342" lon="-0.01204">
        <ele>1682</ele>
        <time>2015-03-10T12:17:45Z</time>
      </trkpt>
      <trkpt lat="42.99321" lon="-0.01204">
        <ele>1685</ele>
        <time>2015-03-10T12:18:15Z</time>
      </trkpt>
      <trkpt lat="42.9932" lon="-0.01204">
        <ele>1685</ele>
        <time>2015-03-10T12:18:17Z</time>
      </trkpt>
      <trkpt lat="42.99299" lon="-0.01209">
        <ele>1685</ele>
        <time>2015-03-10T12:18:54Z</time>
      </trkpt>
      <trkpt lat="42.99297" lon="-0.01208">
        <ele>1685</ele>
        <time>2015-03-10T12:18:56Z</time>
      </trkpt>
      <trkpt lat="42.99295" lon="-0.01208">
        <ele>1685</ele>
        <time>2015-03-10T12:18:58Z</time>
      </trkpt>
      <trkpt lat="42.99294" lon="-0.01207">
        <ele>1685</ele>
        <time>2015-03-10T12:19:00Z</time>
      </trkpt>
      <trkpt lat="42.99291" lon="-0.01206">
        <ele>1685</ele>
        <time>2015-03-10T12:19:04Z</time>
      </trkpt>
      <trkpt lat="42.99289" lon="-0.01205">
        <ele>1685</ele>
        <time>2015-03-10T12:19:06Z</time>
      </trkpt>
      <trkpt lat="42.99289" lon="-0.01203">
        <ele>1685</ele>
        <time>2015-03-10T12:19:08Z</time>
      </trkpt>
      <trkpt lat="42.99285" lon="-0.01194">
        <ele>1684</ele>
        <time>2015-03-10T12:19:16Z</time>
      </trkpt>
      <trkpt lat="42.99284" lon="-0.01193">
        <ele>1684</ele>
        <time>2015-03-10T12:19:18Z</time>
      </trkpt>
      <trkpt lat="42.99281" lon="-0.01194">
        <ele>1684</ele>
        <time>2015-03-10T12:19:22Z</time>
      </trkpt>
      <trkpt lat="42.9928" lon="-0.01196">
        <ele>1684</ele>
        <time>2015-03-10T12:19:24Z</time>
      </trkpt>
      <trkpt lat="42.9928" lon="-0.01198">
        <ele>1684</ele>
        <time>2015-03-10T12:19:34Z</time>
      </trkpt>
      <trkpt lat="42.99274" lon="-0.01221">
        <ele>1686</ele>
        <time>2015-03-10T12:19:56Z</time>
      </trkpt>
      <trkpt lat="42.99273" lon="-0.01219">
        <ele>1685</ele>
        <time>2015-03-10T12:20:04Z</time>
      </trkpt>
      <trkpt lat="42.99273" lon="-0.01216">
        <ele>1685</ele>
        <time>2015-03-10T12:20:06Z</time>
      </trkpt>
      <trkpt lat="42.99267" lon="-0.01181">
        <ele>1683</ele>
        <time>2015-03-10T12:20:37Z</time>
      </trkpt>
      <trkpt lat="42.99266" lon="-0.01182">
        <ele>1683</ele>
        <time>2015-03-10T12:20:42Z</time>
      </trkpt>
      <trkpt lat="42.99264" lon="-0.01184">
        <ele>1683</ele>
        <time>2015-03-10T12:20:48Z</time>
      </trkpt>
      <trkpt lat="42.99262" lon="-0.01183">
        <ele>1683</ele>
        <time>2015-03-10T12:20:50Z</time>
      </trkpt>
      <trkpt lat="42.99236" lon="-0.01171">
        <ele>1678</ele>
        <time>2015-03-10T12:21:20Z</time>
      </trkpt>
      <trkpt lat="42.99208" lon="-0.01151">
        <ele>1669</ele>
        <time>2015-03-10T12:21:50Z</time>
      </trkpt>
      <trkpt lat="42.99179" lon="-0.01126">
        <ele>1666</ele>
        <time>2015-03-10T12:22:21Z</time>
      </trkpt>
      <trkpt lat="42.99177" lon="-0.01125">
        <ele>1666</ele>
        <time>2015-03-10T12:22:23Z</time>
      </trkpt>
      <trkpt lat="42.99152" lon="-0.01099">
        <ele>1656</ele>
        <time>2015-03-10T12:22:53Z</time>
      </trkpt>
      <trkpt lat="42.99129" lon="-0.01066">
        <ele>1651</ele>
        <time>2015-03-10T12:23:23Z</time>
      </trkpt>
      <trkpt lat="42.99103" lon="-0.01036">
        <ele>1649</ele>
        <time>2015-03-10T12:23:53Z</time>
      </trkpt>
      <trkpt lat="42.99076" lon="-0.01006">
        <ele>1644</ele>
        <time>2015-03-10T12:24:23Z</time>
      </trkpt>
      <trkpt lat="42.99075" lon="-0.01004">
        <ele>1644</ele>
        <time>2015-03-10T12:24:25Z</time>
      </trkpt>
      <trkpt lat="42.99048" lon="-0.00986">
        <ele>1639</ele>
        <time>2015-03-10T12:24:55Z</time>
      </trkpt>
      <trkpt lat="42.99019" lon="-0.00967">
        <ele>1637</ele>
        <time>2015-03-10T12:25:25Z</time>
      </trkpt>
      <trkpt lat="42.98991" lon="-0.00946">
        <ele>1628</ele>
        <time>2015-03-10T12:25:55Z</time>
      </trkpt>
      <trkpt lat="42.98969" lon="-0.00923">
        <ele>1626</ele>
        <time>2015-03-10T12:26:25Z</time>
      </trkpt>
      <trkpt lat="42.98957" lon="-0.00913">
        <ele>1621</ele>
        <time>2015-03-10T12:26:41Z</time>
      </trkpt>
      <trkpt lat="42.98936" lon="-0.00882">
        <ele>1618</ele>
        <time>2015-03-10T12:27:12Z</time>
      </trkpt>
      <trkpt lat="42.98912" lon="-0.00858">
        <ele>1609</ele>
        <time>2015-03-10T12:27:42Z</time>
      </trkpt>
      <trkpt lat="42.98891" lon="-0.00829">
        <ele>1604</ele>
        <time>2015-03-10T12:28:12Z</time>
      </trkpt>
      <trkpt lat="42.98889" lon="-0.00827">
        <ele>1604</ele>
        <time>2015-03-10T12:28:14Z</time>
      </trkpt>
      <trkpt lat="42.98887" lon="-0.00822">
        <ele>1603</ele>
        <time>2015-03-10T12:28:18Z</time>
      </trkpt>
      <trkpt lat="42.98861" lon="-0.00794">
        <ele>1601</ele>
        <time>2015-03-10T12:28:48Z</time>
      </trkpt>
      <trkpt lat="42.98858" lon="-0.0079">
        <ele>1601</ele>
        <time>2015-03-10T12:28:52Z</time>
      </trkpt>
      <trkpt lat="42.98827" lon="-0.00783">
        <ele>1598</ele>
        <time>2015-03-10T12:29:22Z</time>
      </trkpt>
      <trkpt lat="42.98824" lon="-0.0078">
        <ele>1598</ele>
        <time>2015-03-10T12:29:26Z</time>
      </trkpt>
      <trkpt lat="42.98822" lon="-0.00779">
        <ele>1598</ele>
        <time>2015-03-10T12:29:28Z</time>
      </trkpt>
      <trkpt lat="42.98792" lon="-0.00784">
        <ele>1597</ele>
        <time>2015-03-10T12:29:58Z</time>
      </trkpt>
      <trkpt lat="42.9879" lon="-0.00784">
        <ele>1597</ele>
        <time>2015-03-10T12:30:00Z</time>
      </trkpt>
      <trkpt lat="42.98783" lon="-0.00777">
        <ele>1597</ele>
        <time>2015-03-10T12:30:10Z</time>
      </trkpt>
      <trkpt lat="42.98779" lon="-0.00764">
        <ele>1597</ele>
        <time>2015-03-10T12:30:20Z</time>
      </trkpt>
      <trkpt lat="42.98776" lon="-0.0072">
        <ele>1597</ele>
        <time>2015-03-10T12:30:50Z</time>
      </trkpt>
      <trkpt lat="42.98767" lon="-0.00704">
        <ele>1598</ele>
        <time>2015-03-10T12:31:04Z</time>
      </trkpt>
      <trkpt lat="42.98737" lon="-0.00697">
        <ele>1600</ele>
        <time>2015-03-10T12:31:34Z</time>
      </trkpt>
      <trkpt lat="42.9871" lon="-0.00696">
        <ele>1601</ele>
        <time>2015-03-10T12:32:04Z</time>
      </trkpt>
      <trkpt lat="42.98709" lon="-0.00697">
        <ele>1601</ele>
        <time>2015-03-10T12:32:06Z</time>
      </trkpt>
      <trkpt lat="42.98684" lon="-0.00696">
        <ele>1602</ele>
        <time>2015-03-10T12:32:36Z</time>
      </trkpt>
      <trkpt lat="42.98656" lon="-0.00691">
        <ele>1606</ele>
        <time>2015-03-10T12:33:06Z</time>
      </trkpt>
      <trkpt lat="42.98629" lon="-0.00686">
        <ele>1607</ele>
        <time>2015-03-10T12:33:37Z</time>
      </trkpt>
      <trkpt lat="42.98627" lon="-0.00686">
        <ele>1607</ele>
        <time>2015-03-10T12:33:39Z</time>
      </trkpt>
      <trkpt lat="42.98601" lon="-0.00682">
        <ele>1609</ele>
        <time>2015-03-10T12:34:09Z</time>
      </trkpt>
      <trkpt lat="42.98575" lon="-0.00676">
        <ele>1610</ele>
        <time>2015-03-10T12:34:39Z</time>
      </trkpt>
      <trkpt lat="42.98548" lon="-0.0067">
        <ele>1606</ele>
        <time>2015-03-10T12:35:09Z</time>
      </trkpt>
      <trkpt lat="42.98547" lon="-0.0067">
        <ele>1606</ele>
        <time>2015-03-10T12:35:11Z</time>
      </trkpt>
      <trkpt lat="42.98546" lon="-0.00669">
        <ele>1606</ele>
        <time>2015-03-10T12:35:13Z</time>
      </trkpt>
      <trkpt lat="42.98545" lon="-0.00668">
        <ele>1606</ele>
        <time>2015-03-10T12:36:02Z</time>
      </trkpt>
      <trkpt lat="42.98543" lon="-0.00667">
        <ele>1606</ele>
        <time>2015-03-10T12:36:36Z</time>
      </trkpt>
      <trkpt lat="42.98539" lon="-0.00667">
        <ele>1606</ele>
        <time>2015-03-10T12:36:41Z</time>
      </trkpt>
      <trkpt lat="42.98537" lon="-0.00666">
        <ele>1607</ele>
        <time>2015-03-10T12:36:43Z</time>
      </trkpt>
      <trkpt lat="42.98511" lon="-0.00641">
        <ele>1606</ele>
        <time>2015-03-10T12:37:13Z</time>
      </trkpt>
      <trkpt lat="42.98483" lon="-0.00615">
        <ele>1598</ele>
        <time>2015-03-10T12:37:43Z</time>
      </trkpt>
      <trkpt lat="42.98463" lon="-0.0058">
        <ele>1597</ele>
        <time>2015-03-10T12:38:13Z</time>
      </trkpt>
      <trkpt lat="42.98446" lon="-0.00547">
        <ele>1596</ele>
        <time>2015-03-10T12:38:43Z</time>
      </trkpt>
      <trkpt lat="42.98445" lon="-0.00546">
        <ele>1596</ele>
        <time>2015-03-10T12:38:44Z</time>
      </trkpt>
      <trkpt lat="42.98424" lon="-0.00507">
        <ele>1595</ele>
        <time>2015-03-10T12:39:14Z</time>
      </trkpt>
      <trkpt lat="42.98409" lon="-0.00485">
        <ele>1594</ele>
        <time>2015-03-10T12:39:36Z</time>
      </trkpt>
      <trkpt lat="42.98407" lon="-0.00485">
        <ele>1594</ele>
        <time>2015-03-10T12:39:38Z</time>
      </trkpt>
      <trkpt lat="42.98401" lon="-0.00476">
        <ele>1594</ele>
        <time>2015-03-10T12:39:46Z</time>
      </trkpt>
      <trkpt lat="42.98384" lon="-0.00444">
        <ele>1595</ele>
        <time>2015-03-10T12:40:16Z</time>
      </trkpt>
      <trkpt lat="42.98381" lon="-0.00438">
        <ele>1596</ele>
        <time>2015-03-10T12:40:22Z</time>
      </trkpt>
      <trkpt lat="42.98364" lon="-0.00411">
        <ele>1601</ele>
        <time>2015-03-10T12:40:52Z</time>
      </trkpt>
      <trkpt lat="42.98363" lon="-0.00409">
        <ele>1601</ele>
        <time>2015-03-10T12:40:54Z</time>
      </trkpt>
      <trkpt lat="42.98347" lon="-0.00377">
        <ele>1602</ele>
        <time>2015-03-10T12:41:25Z</time>
      </trkpt>
      <trkpt lat="42.9833" lon="-0.00348">
        <ele>1602</ele>
        <time>2015-03-10T12:41:55Z</time>
      </trkpt>
      <trkpt lat="42.98312" lon="-0.0032">
        <ele>1605</ele>
        <time>2015-03-10T12:42:26Z</time>
      </trkpt>
      <trkpt lat="42.98293" lon="-0.00295">
        <ele>1606</ele>
        <time>2015-03-10T12:43:02Z</time>
      </trkpt>
      <trkpt lat="42.98272" lon="-0.00267">
        <ele>1607</ele>
        <time>2015-03-10T12:43:32Z</time>
      </trkpt>
      <trkpt lat="42.98249" lon="-0.00243">
        <ele>1610</ele>
        <time>2015-03-10T12:44:03Z</time>
      </trkpt>
      <trkpt lat="42.98248" lon="-0.00241">
        <ele>1610</ele>
        <time>2015-03-10T12:44:05Z</time>
      </trkpt>
      <trkpt lat="42.98246" lon="-0.0024">
        <ele>1610</ele>
        <time>2015-03-10T12:44:07Z</time>
      </trkpt>
      <trkpt lat="42.98223" lon="-0.00213">
        <ele>1610</ele>
        <time>2015-03-10T12:44:38Z</time>
      </trkpt>
      <trkpt lat="42.98221" lon="-0.00212">
        <ele>1610</ele>
        <time>2015-03-10T12:44:40Z</time>
      </trkpt>
      <trkpt lat="42.9822" lon="-0.0021">
        <ele>1610</ele>
        <time>2015-03-10T12:44:42Z</time>
      </trkpt>
      <trkpt lat="42.98197" lon="-0.00181">
        <ele>1611</ele>
        <time>2015-03-10T12:45:12Z</time>
      </trkpt>
      <trkpt lat="42.98171" lon="-0.00156">
        <ele>1616</ele>
        <time>2015-03-10T12:45:42Z</time>
      </trkpt>
      <trkpt lat="42.98169" lon="-0.00154">
        <ele>1616</ele>
        <time>2015-03-10T12:45:44Z</time>
      </trkpt>
      <trkpt lat="42.98146" lon="-0.0013">
        <ele>1616</ele>
        <time>2015-03-10T12:46:14Z</time>
      </trkpt>
      <trkpt lat="42.98123" lon="-0.00105">
        <ele>1616</ele>
        <time>2015-03-10T12:46:44Z</time>
      </trkpt>
      <trkpt lat="42.9811" lon="-0.00091">
        <ele>1616</ele>
        <time>2015-03-10T12:47:15Z</time>
      </trkpt>
      <trkpt lat="42.98109" lon="-0.00089">
        <ele>1616</ele>
        <time>2015-03-10T12:47:17Z</time>
      </trkpt>
      <trkpt lat="42.98085" lon="-0.00063">
        <ele>1622</ele>
        <time>2015-03-10T12:47:47Z</time>
      </trkpt>
      <trkpt lat="42.98062" lon="-0.00036">
        <ele>1621</ele>
        <time>2015-03-10T12:48:17Z</time>
      </trkpt>
      <trkpt lat="42.9806" lon="-0.00035">
        <ele>1622</ele>
        <time>2015-03-10T12:48:19Z</time>
      </trkpt>
      <trkpt lat="42.98031" lon="-0.00017">
        <ele>1623</ele>
        <time>2015-03-10T12:48:49Z</time>
      </trkpt>
      <trkpt lat="42.98003" lon="-0.00012">
        <ele>1625</ele>
        <time>2015-03-10T12:49:19Z</time>
      </trkpt>
      <trkpt lat="42.97975" lon="-8.0E-5">
        <ele>1624</ele>
        <time>2015-03-10T12:49:49Z</time>
      </trkpt>
      <trkpt lat="42.97945" lon="-7.0E-5">
        <ele>1624</ele>
        <time>2015-03-10T12:50:20Z</time>
      </trkpt>
      <trkpt lat="42.97918" lon="-0.00012">
        <ele>1626</ele>
        <time>2015-03-10T12:50:51Z</time>
      </trkpt>
      <trkpt lat="42.97891" lon="-0.00017">
        <ele>1627</ele>
        <time>2015-03-10T12:51:21Z</time>
      </trkpt>
      <trkpt lat="42.97862" lon="-0.00023">
        <ele>1627</ele>
        <time>2015-03-10T12:51:52Z</time>
      </trkpt>
      <trkpt lat="42.97836" lon="-0.00041">
        <ele>1627</ele>
        <time>2015-03-10T12:52:22Z</time>
      </trkpt>
      <trkpt lat="42.97815" lon="-0.00066">
        <ele>1630</ele>
        <time>2015-03-10T12:52:52Z</time>
      </trkpt>
      <trkpt lat="42.97794" lon="-0.00093">
        <ele>1630</ele>
        <time>2015-03-10T12:53:23Z</time>
      </trkpt>
      <trkpt lat="42.97772" lon="-0.0012">
        <ele>1631</ele>
        <time>2015-03-10T12:53:53Z</time>
      </trkpt>
      <trkpt lat="42.97747" lon="-0.00143">
        <ele>1640</ele>
        <time>2015-03-10T12:54:24Z</time>
      </trkpt>
      <trkpt lat="42.97723" lon="-0.00168">
        <ele>1637</ele>
        <time>2015-03-10T12:54:54Z</time>
      </trkpt>
      <trkpt lat="42.977" lon="-0.00191">
        <ele>1639</ele>
        <time>2015-03-10T12:55:24Z</time>
      </trkpt>
      <trkpt lat="42.97675" lon="-0.00215">
        <ele>1639</ele>
        <time>2015-03-10T12:55:54Z</time>
      </trkpt>
      <trkpt lat="42.97649" lon="-0.00238">
        <ele>1645</ele>
        <time>2015-03-10T12:56:24Z</time>
      </trkpt>
      <trkpt lat="42.97619" lon="-0.00256">
        <ele>1640</ele>
        <time>2015-03-10T12:56:54Z</time>
      </trkpt>
      <trkpt lat="42.97589" lon="-0.00267">
        <ele>1642</ele>
        <time>2015-03-10T12:57:24Z</time>
      </trkpt>
      <trkpt lat="42.97559" lon="-0.00271">
        <ele>1643</ele>
        <time>2015-03-10T12:57:54Z</time>
      </trkpt>
      <trkpt lat="42.97557" lon="-0.00272">
        <ele>1643</ele>
        <time>2015-03-10T12:57:56Z</time>
      </trkpt>
      <trkpt lat="42.97555" lon="-0.00272">
        <ele>1643</ele>
        <time>2015-03-10T12:57:58Z</time>
      </trkpt>
      <trkpt lat="42.97553" lon="-0.00272">
        <ele>1643</ele>
        <time>2015-03-10T12:58:00Z</time>
      </trkpt>
      <trkpt lat="42.97525" lon="-0.00276">
        <ele>1642</ele>
        <time>2015-03-10T12:58:30Z</time>
      </trkpt>
      <trkpt lat="42.97514" lon="-0.00276">
        <ele>1643</ele>
        <time>2015-03-10T12:58:42Z</time>
      </trkpt>
      <trkpt lat="42.97512" lon="-0.00276">
        <ele>1643</ele>
        <time>2015-03-10T12:58:44Z</time>
      </trkpt>
      <trkpt lat="42.9751" lon="-0.00276">
        <ele>1643</ele>
        <time>2015-03-10T12:58:46Z</time>
      </trkpt>
      <trkpt lat="42.97509" lon="-0.00276">
        <ele>1643</ele>
        <time>2015-03-10T12:58:48Z</time>
      </trkpt>
      <trkpt lat="42.97498" lon="-0.00276">
        <ele>1639</ele>
        <time>2015-03-10T12:59:18Z</time>
      </trkpt>
      <trkpt lat="42.9747" lon="-0.00278">
        <ele>1637</ele>
        <time>2015-03-10T12:59:48Z</time>
      </trkpt>
      <trkpt lat="42.97458" lon="-0.00288">
        <ele>1635</ele>
        <time>2015-03-10T13:00:02Z</time>
      </trkpt>
      <trkpt lat="42.97458" lon="-0.00286">
        <ele>1635</ele>
        <time>2015-03-10T13:00:19Z</time>
      </trkpt>
      <trkpt lat="42.97458" lon="-0.00283">
        <ele>1635</ele>
        <time>2015-03-10T13:00:21Z</time>
      </trkpt>
      <trkpt lat="42.97462" lon="-0.00274">
        <ele>1636</ele>
        <time>2015-03-10T13:00:29Z</time>
      </trkpt>
      <trkpt lat="42.9746" lon="-0.00271">
        <ele>1636</ele>
        <time>2015-03-10T13:00:33Z</time>
      </trkpt>
      <trkpt lat="42.97437" lon="-0.00284">
        <ele>1633</ele>
        <time>2015-03-10T13:01:04Z</time>
      </trkpt>
      <trkpt lat="42.97404" lon="-0.00289">
        <ele>1626</ele>
        <time>2015-03-10T13:01:35Z</time>
      </trkpt>
      <trkpt lat="42.97368" lon="-0.00288">
        <ele>1625</ele>
        <time>2015-03-10T13:02:06Z</time>
      </trkpt>
      <trkpt lat="42.97337" lon="-0.00285">
        <ele>1622</ele>
        <time>2015-03-10T13:02:36Z</time>
      </trkpt>
      <trkpt lat="42.97334" lon="-0.00286">
        <ele>1622</ele>
        <time>2015-03-10T13:02:38Z</time>
      </trkpt>
      <trkpt lat="42.97301" lon="-0.0028">
        <ele>1619</ele>
        <time>2015-03-10T13:03:08Z</time>
      </trkpt>
      <trkpt lat="42.97267" lon="-0.0027">
        <ele>1618</ele>
        <time>2015-03-10T13:03:38Z</time>
      </trkpt>
      <trkpt lat="42.97236" lon="-0.0027">
        <ele>1617</ele>
        <time>2015-03-10T13:04:08Z</time>
      </trkpt>
      <trkpt lat="42.97233" lon="-0.00272">
        <ele>1617</ele>
        <time>2015-03-10T13:04:19Z</time>
      </trkpt>
      <trkpt lat="42.97234" lon="-0.00276">
        <ele>1618</ele>
        <time>2015-03-10T13:04:28Z</time>
      </trkpt>
      <trkpt lat="42.97224" lon="-0.0029">
        <ele>1619</ele>
        <time>2015-03-10T13:04:58Z</time>
      </trkpt>
      <trkpt lat="42.9721" lon="-0.00298">
        <ele>1619</ele>
        <time>2015-03-10T13:05:22Z</time>
      </trkpt>
      <trkpt lat="42.97209" lon="-0.00302">
        <ele>1619</ele>
        <time>2015-03-10T13:05:27Z</time>
      </trkpt>
      <trkpt lat="42.97206" lon="-0.00303">
        <ele>1619</ele>
        <time>2015-03-10T13:05:36Z</time>
      </trkpt>
      <trkpt lat="42.97205" lon="-0.00302">
        <ele>1619</ele>
        <time>2015-03-10T13:05:39Z</time>
      </trkpt>
      <trkpt lat="42.97204" lon="-0.00301">
        <ele>1619</ele>
        <time>2015-03-10T13:05:41Z</time>
      </trkpt>
      <trkpt lat="42.97203" lon="-0.00299">
        <ele>1619</ele>
        <time>2015-03-10T13:05:44Z</time>
      </trkpt>
      <trkpt lat="42.97201" lon="-0.00298">
        <ele>1619</ele>
        <time>2015-03-10T13:05:51Z</time>
      </trkpt>
      <trkpt lat="42.972" lon="-0.00297">
        <ele>1619</ele>
        <time>2015-03-10T13:06:10Z</time>
      </trkpt>
      <trkpt lat="42.97198" lon="-0.00296">
        <ele>1619</ele>
        <time>2015-03-10T13:06:15Z</time>
      </trkpt>
      <trkpt lat="42.97195" lon="-0.00299">
        <ele>1619</ele>
        <time>2015-03-10T13:06:21Z</time>
      </trkpt>
      <trkpt lat="42.9719" lon="-0.003">
        <ele>1619</ele>
        <time>2015-03-10T13:06:27Z</time>
      </trkpt>
    </trkseg>
  </trk>
</gpx>